createdAt,value
2023-01-31T00:01:41.037Z,10.45
2023-01-31T00:04:11.976Z,11.93
2023-01-31T00:06:45.068Z,11.20
2023-01-31T00:09:13.025Z,11.52
2023-01-31T00:11:40.429Z,12.48
2023-01-31T00:14:10.686Z,11.40
2023-01-31T00:16:38.416Z,11.25
2023-01-31T00:19:06.014Z,12.68
2023-01-31T00:21:33.409Z,11.77
2023-01-31T00:24:01.056Z,11.77
2023-01-31T00:26:33.506Z,12.00
2023-01-31T00:29:02.236Z,11.77
2023-01-31T00:31:31.247Z,12.52
2023-01-31T00:33:58.832Z,13.02
2023-01-31T00:36:32.242Z,14.52
2023-01-31T00:39:02.735Z,13.02
2023-01-31T00:41:30.909Z,13.82
2023-01-31T00:43:58.188Z,13.90
2023-01-31T00:46:25.736Z,13.55
2023-01-31T00:48:53.886Z,14.50
2023-01-31T00:51:22.018Z,15.13
2023-01-31T00:53:50.430Z,14.55
2023-01-31T00:56:20.709Z,14.73
2023-01-31T00:58:47.741Z,13.65
2023-01-31T01:01:19.319Z,13.98
2023-01-31T01:03:46.541Z,15.05
2023-01-31T01:06:14.734Z,13.52
2023-01-31T01:08:42.611Z,13.57
2023-01-31T01:11:22.463Z,14.60
2023-01-31T01:13:50.221Z,14.95
2023-01-31T01:16:24.210Z,14.00
2023-01-31T01:18:51.537Z,14.00
2023-01-31T01:21:21.343Z,13.38
2023-01-31T01:23:49.282Z,14.18
2023-01-31T01:26:25.687Z,13.73
2023-01-31T01:28:57.090Z,14.20
2023-01-31T01:31:30.764Z,13.55
2023-01-31T01:34:07.118Z,14.73
2023-01-31T01:39:04.717Z,14.18
2023-01-31T01:41:36.260Z,14.23
2023-01-31T01:44:44.308Z,13.40
2023-01-31T01:47:23.308Z,13.60
2023-01-31T01:49:56.825Z,14.23
2023-01-31T01:52:26.519Z,14.20
2023-01-31T01:55:00.973Z,14.52
2023-01-31T01:55:41.982Z,7.80
2023-01-31T01:57:36.296Z,14.30
2023-01-31T01:58:15.566Z,6.45
2023-01-31T02:00:23.720Z,14.30
2023-01-31T02:00:45.799Z,8.68
2023-01-31T02:02:56.388Z,13.55
2023-01-31T02:03:14.319Z,8.82
2023-01-31T02:05:32.425Z,13.75
2023-01-31T02:05:46.983Z,10.23
2023-01-31T02:08:18.338Z,7.97
2023-01-31T02:10:40.793Z,14.32
2023-01-31T02:10:50.998Z,9.30
2023-01-31T02:13:08.556Z,13.48
2023-01-31T02:13:19.753Z,7.50
2023-01-31T02:15:36.165Z,13.98
2023-01-31T02:15:48.411Z,10.60
2023-01-31T02:18:03.281Z,13.65
2023-01-31T02:18:18.266Z,7.75
2023-01-31T02:20:37.997Z,12.93
2023-01-31T02:21:39.064Z,7.50
2023-01-31T02:23:42.674Z,13.18
2023-01-31T02:24:44.393Z,8.45
2023-01-31T02:26:37.197Z,14.93
2023-01-31T02:27:45.177Z,10.15
2023-01-31T02:29:22.970Z,13.55
2023-01-31T02:30:40.666Z,9.02
2023-01-31T02:32:17.188Z,15.55
2023-01-31T02:33:19.969Z,9.13
2023-01-31T02:35:13.286Z,14.45
2023-01-31T02:36:26.763Z,8.73
2023-01-31T02:38:27.980Z,13.45
2023-01-31T02:39:04.082Z,9.90
2023-01-31T02:41:18.235Z,14.35
2023-01-31T02:41:39.115Z,8.85
2023-01-31T02:44:24.865Z,12.75
2023-01-31T02:44:32.047Z,8.65
2023-01-31T02:46:59.671Z,14.70
2023-01-31T02:47:03.280Z,9.15
2023-01-31T02:49:39.568Z,10.07
2023-01-31T02:49:41.313Z,13.95
2023-01-31T02:52:20.437Z,10.60
2023-01-31T02:52:24.408Z,12.73
2023-01-31T02:55:18.666Z,9.45
2023-01-31T02:55:33.221Z,13.90
2023-01-31T02:57:50.134Z,9.25
2023-01-31T02:58:02.482Z,13.77
2023-01-31T03:00:20.022Z,10.07
2023-01-31T03:00:32.939Z,13.98
2023-01-31T03:02:48.178Z,10.40
2023-01-31T03:02:59.885Z,14.80
2023-01-31T03:05:19.787Z,10.50
2023-01-31T03:05:27.490Z,14.38
2023-01-31T03:07:51.892Z,11.85
2023-01-31T03:07:58.018Z,13.32
2023-01-31T03:10:44.146Z,8.35
2023-01-31T03:10:50.920Z,12.75
2023-01-31T03:13:28.173Z,9.75
2023-01-31T03:13:29.994Z,15.60
2023-01-31T03:16:24.223Z,8.77
2023-01-31T03:16:27.031Z,13.98
2023-01-31T03:19:00.493Z,8.65
2023-01-31T03:19:14.448Z,13.88
2023-01-31T03:21:35.095Z,9.30
2023-01-31T03:21:53.359Z,14.25
2023-01-31T03:24:05.735Z,11.63
2023-01-31T03:24:20.922Z,14.07
2023-01-31T03:26:34.768Z,9.98
2023-01-31T03:26:49.336Z,14.10
2023-01-31T03:29:05.336Z,9.10
2023-01-31T03:29:17.689Z,13.95
2023-01-31T03:31:37.520Z,8.20
2023-01-31T03:31:53.833Z,13.85
2023-01-31T03:34:09.432Z,8.88
2023-01-31T03:36:46.434Z,9.02
2023-01-31T03:37:07.291Z,13.65
2023-01-31T03:39:21.007Z,9.82
2023-01-31T03:39:43.056Z,14.50
2023-01-31T03:41:56.548Z,8.82
2023-01-31T03:42:25.474Z,13.63
2023-01-31T03:44:31.677Z,10.25
2023-01-31T03:45:20.354Z,14.30
2023-01-31T03:47:05.203Z,8.43
2023-01-31T03:47:50.460Z,12.57
2023-01-31T03:49:34.315Z,10.60
2023-01-31T03:50:28.821Z,12.45
2023-01-31T03:52:08.697Z,10.20
2023-01-31T03:53:03.113Z,13.95
2023-01-31T03:54:42.135Z,10.18
2023-01-31T03:55:52.239Z,11.80
2023-01-31T03:57:16.006Z,11.00
2023-01-31T03:58:21.715Z,12.10
2023-01-31T03:59:47.549Z,9.40
2023-01-31T04:00:50.452Z,13.50
2023-01-31T04:02:18.895Z,12.73
2023-01-31T04:03:30.599Z,12.30
2023-01-31T04:04:50.174Z,13.00
2023-01-31T04:05:57.922Z,12.52
2023-01-31T04:07:19.685Z,13.02
2023-01-31T04:08:25.315Z,11.90
2023-01-31T04:09:47.917Z,11.02
2023-01-31T04:10:52.634Z,11.80
2023-01-31T04:12:16.417Z,10.48
2023-01-31T04:13:19.722Z,11.93
2023-01-31T04:14:44.742Z,10.98
2023-01-31T04:15:46.728Z,12.68
2023-01-31T04:17:13.341Z,10.57
2023-01-31T04:18:13.839Z,11.93
2023-01-31T04:19:41.534Z,11.00
2023-01-31T04:20:40.747Z,13.05
2023-01-31T04:22:09.649Z,10.20
2023-01-31T04:23:07.839Z,10.75
2023-01-31T04:24:39.096Z,10.50
2023-01-31T04:25:35.366Z,12.55
2023-01-31T04:27:07.177Z,10.90
2023-01-31T04:28:02.499Z,11.45
2023-01-31T04:29:35.234Z,11.63
2023-01-31T04:30:29.643Z,11.20
2023-01-31T04:32:03.450Z,10.55
2023-01-31T04:32:56.743Z,10.75
2023-01-31T04:35:23.731Z,11.52
2023-01-31T04:37:50.640Z,10.55
2023-01-31T04:40:18.197Z,11.75
2023-01-31T04:42:47.850Z,10.25
2023-01-31T04:45:19.179Z,9.38
2023-01-31T04:47:46.463Z,9.55
2023-01-31T04:50:13.621Z,9.80
2023-01-31T04:52:40.774Z,9.82
2023-01-31T04:55:08.450Z,9.90
2023-01-31T04:57:35.582Z,9.00
2023-01-31T05:00:05.091Z,9.32
2023-01-31T05:02:32.661Z,9.60
2023-01-31T05:05:00.415Z,9.20
2023-01-31T05:07:27.449Z,9.07
2023-01-31T05:09:54.739Z,11.02
2023-01-31T05:12:21.905Z,8.30
2023-01-31T05:14:49.011Z,9.85
2023-01-31T05:17:16.168Z,8.45
2023-01-31T05:19:43.942Z,10.23
2023-01-31T05:22:11.098Z,9.60
2023-01-31T05:24:38.719Z,9.30
2023-01-31T05:27:05.722Z,8.63
2023-01-31T05:29:33.550Z,9.10
2023-01-31T05:32:02.010Z,9.07
2023-01-31T05:34:31.235Z,8.70
2023-01-31T05:36:58.456Z,9.07
2023-01-31T05:39:25.696Z,11.15
2023-01-31T05:41:53.492Z,8.50
2023-01-31T05:44:20.886Z,8.60
2023-01-31T05:46:48.367Z,9.02
2023-01-31T05:49:15.349Z,8.50
2023-01-31T05:51:43.102Z,8.43
2023-01-31T05:54:11.799Z,8.50
2023-01-31T05:56:39.385Z,7.88
2023-01-31T05:59:06.449Z,7.70
2023-01-31T06:01:33.659Z,7.15
2023-01-31T06:04:00.913Z,7.15
2023-01-31T06:06:28.047Z,9.10
2023-01-31T06:08:54.981Z,7.53
2023-01-31T06:11:22.298Z,8.07
2023-01-31T06:13:49.583Z,7.22
2023-01-31T06:16:16.589Z,7.32
2023-01-31T06:18:43.611Z,7.57
2023-01-31T06:21:12.367Z,7.82
2023-01-31T06:23:39.796Z,7.28
2023-01-31T06:26:06.854Z,7.03
2023-01-31T06:28:34.047Z,7.57
2023-01-31T06:31:10.063Z,8.48
2023-01-31T06:36:18.110Z,7.43
2023-01-31T06:38:49.550Z,7.47
2023-01-31T06:41:16.505Z,8.02
2023-01-31T06:43:43.582Z,9.45
2023-01-31T06:46:10.594Z,10.45
2023-01-31T06:48:37.601Z,18.88
2023-01-31T06:51:04.967Z,22.90
2023-01-31T06:53:32.712Z,12.63
2023-01-31T06:55:59.827Z,22.73
2023-01-31T06:58:30.323Z,13.80
2023-01-31T07:00:58.515Z,6.95
2023-01-31T07:03:25.891Z,9.15
2023-01-31T07:05:52.954Z,10.55
2023-01-31T07:08:22.991Z,7.38
2023-01-31T07:10:50.094Z,8.13
2023-01-31T07:13:16.993Z,8.07
2023-01-31T07:15:44.040Z,7.90
2023-01-31T07:18:12.412Z,7.60
2023-01-31T07:20:44.583Z,7.15
2023-01-31T07:23:11.607Z,7.55
2023-01-31T07:25:38.829Z,8.02
2023-01-31T07:28:05.813Z,7.93
2023-01-31T07:30:33.269Z,8.32
2023-01-31T07:33:00.731Z,6.93
2023-01-31T07:35:28.705Z,7.60
2023-01-31T07:37:55.627Z,7.13
2023-01-31T07:40:22.820Z,7.57
2023-01-31T07:42:50.229Z,7.15
2023-01-31T07:45:33.173Z,7.15
2023-01-31T07:48:00.553Z,6.97
2023-01-31T07:50:27.934Z,7.55
2023-01-31T07:52:57.087Z,6.90
2023-01-31T07:55:24.129Z,7.47
2023-01-31T07:57:51.172Z,7.00
2023-01-31T08:00:39.925Z,6.80
2023-01-31T08:03:33.440Z,7.40
2023-01-31T08:06:11.399Z,7.05
2023-01-31T08:08:39.538Z,7.15
2023-01-31T08:11:06.945Z,7.07
2023-01-31T08:13:38.752Z,7.32
2023-01-31T08:16:08.141Z,7.13
2023-01-31T08:18:35.816Z,6.43
2023-01-31T08:21:02.979Z,6.35
2023-01-31T08:23:31.782Z,5.90
2023-01-31T08:26:04.567Z,6.55
2023-01-31T08:28:32.771Z,7.15
2023-01-31T08:31:08.483Z,6.43
2023-01-31T08:33:37.517Z,7.18
2023-01-31T08:36:16.587Z,8.05
2023-01-31T08:38:44.730Z,7.15
2023-01-31T08:41:12.478Z,7.82
2023-01-31T08:43:54.101Z,6.43
2023-01-31T08:46:22.388Z,7.85
2023-01-31T08:48:49.285Z,6.13
2023-01-31T08:51:16.197Z,6.38
2023-01-31T08:53:44.707Z,6.53
2023-01-31T08:56:12.854Z,6.35
2023-01-31T08:58:42.013Z,6.65
2023-01-31T09:01:19.758Z,6.30
2023-01-31T09:03:47.857Z,6.68
2023-01-31T09:06:17.145Z,6.07
2023-01-31T09:08:44.140Z,7.07
2023-01-31T09:11:11.217Z,6.85
2023-01-31T09:13:38.084Z,8.05
2023-01-31T09:16:10.831Z,6.78
2023-01-31T09:18:39.543Z,6.40
2023-01-31T09:21:11.079Z,7.30
2023-01-31T09:23:41.967Z,7.32
2023-01-31T09:26:10.997Z,7.32
2023-01-31T09:28:38.411Z,7.18
2023-01-31T09:31:08.032Z,8.25
2023-01-31T09:33:36.121Z,8.90
2023-01-31T09:36:06.575Z,9.15
2023-01-31T09:38:34.431Z,8.70
2023-01-31T09:41:22.229Z,7.75
2023-01-31T09:44:20.755Z,8.95
2023-01-31T09:47:08.809Z,7.45
2023-01-31T09:49:51.613Z,7.15
2023-01-31T09:52:19.171Z,6.75
2023-01-31T09:54:46.072Z,6.95
2023-01-31T09:57:12.813Z,7.38
2023-01-31T09:59:47.775Z,7.35
2023-01-31T10:02:45.941Z,6.13
2023-01-31T10:05:45.680Z,7.18
2023-01-31T10:08:34.368Z,10.77
2023-01-31T10:11:07.077Z,6.63
2023-01-31T10:13:43.651Z,6.40
2023-01-31T10:16:21.552Z,6.20
2023-01-31T10:18:54.023Z,6.22
2023-01-31T10:21:26.071Z,5.63
2023-01-31T10:24:11.128Z,6.10
2023-01-31T10:26:42.023Z,4.85
2023-01-31T10:29:27.349Z,5.55
2023-01-31T10:32:11.311Z,5.47
2023-01-31T10:35:10.167Z,5.43
2023-01-31T10:37:47.827Z,5.60
2023-01-31T10:40:23.261Z,4.38
2023-01-31T10:42:55.086Z,4.20
2023-01-31T10:45:31.095Z,5.00
2023-01-31T10:48:14.540Z,4.78
2023-01-31T10:50:44.250Z,5.50
2023-01-31T10:53:38.146Z,5.05
2023-01-31T10:56:12.765Z,4.68
2023-01-31T10:58:40.015Z,4.63
2023-01-31T11:01:15.361Z,7.70
2023-01-31T11:03:52.602Z,4.60
2023-01-31T11:06:21.328Z,4.70
2023-01-31T11:08:57.913Z,4.32
2023-01-31T11:11:27.196Z,4.22
2023-01-31T11:14:05.621Z,5.57
2023-01-31T11:16:36.574Z,4.53
2023-01-31T11:19:15.781Z,4.30
2023-01-31T11:21:48.076Z,4.10
2023-01-31T11:24:21.856Z,4.03
2023-01-31T11:27:29.031Z,6.25
2023-01-31T11:30:00.184Z,4.10
2023-01-31T11:32:32.850Z,4.25
2023-01-31T11:35:01.109Z,4.00
2023-01-31T11:37:30.403Z,4.95
2023-01-31T11:40:22.765Z,4.60
2023-01-31T11:42:54.859Z,4.30
2023-01-31T11:45:23.951Z,4.20
2023-01-31T11:47:52.906Z,4.07
2023-01-31T11:50:33.209Z,4.25
2023-01-31T11:53:15.240Z,4.47
2023-01-31T11:55:43.927Z,5.03
2023-01-31T11:58:31.397Z,5.07
2023-01-31T12:01:06.751Z,5.97
2023-01-31T12:03:34.480Z,4.05
2023-01-31T12:06:09.753Z,4.75
2023-01-31T12:08:43.568Z,4.90
2023-01-31T12:11:32.636Z,3.90
2023-01-31T12:14:16.987Z,4.95
2023-01-31T12:16:48.670Z,6.10
2023-01-31T12:19:15.478Z,4.38
2023-01-31T12:22:00.562Z,5.32
2023-01-31T12:24:37.323Z,4.22
2023-01-31T12:27:04.169Z,4.65
2023-01-31T12:29:52.262Z,4.55
2023-01-31T12:33:12.689Z,4.75
2023-01-31T12:35:45.462Z,5.00
2023-01-31T12:38:36.987Z,5.38
2023-01-31T12:41:21.507Z,6.25
2023-01-31T12:43:57.270Z,6.57
2023-01-31T12:47:08.681Z,7.25
2023-01-31T12:50:21.334Z,7.30
2023-01-31T12:53:16.014Z,7.57
2023-01-31T12:56:00.765Z,9.13
2023-01-31T12:58:51.260Z,8.23
2023-01-31T13:01:41.231Z,10.20
2023-01-31T13:04:26.947Z,9.98
2023-01-31T13:07:08.068Z,11.10
2023-01-31T13:09:37.036Z,10.93
2023-01-31T13:12:19.979Z,12.32
2023-01-31T13:15:04.084Z,12.25
2023-01-31T13:17:33.896Z,12.30
2023-01-31T13:20:31.457Z,11.35
2023-01-31T13:23:04.194Z,12.25
2023-01-31T13:25:54.804Z,11.93
2023-01-31T13:28:32.108Z,11.60
2023-01-31T13:31:10.012Z,12.07
2023-01-31T13:33:47.513Z,11.77
2023-01-31T13:36:33.402Z,12.25
2023-01-31T13:41:32.524Z,11.93
2023-01-31T13:46:53.867Z,12.70
2023-01-31T13:49:55.004Z,13.55
2023-01-31T13:52:46.114Z,12.07
2023-01-31T13:55:23.898Z,11.73
2023-01-31T13:57:57.664Z,11.93
2023-01-31T14:00:47.622Z,11.32
2023-01-31T14:03:17.790Z,10.48
2023-01-31T14:05:50.693Z,11.77
2023-01-31T14:08:49.824Z,11.27
2023-01-31T14:11:16.582Z,10.23
2023-01-31T14:13:45.551Z,10.27
2023-01-31T14:16:34.252Z,11.32
2023-01-31T14:19:01.186Z,10.68
2023-01-31T14:21:30.715Z,14.05
2023-01-31T14:23:59.503Z,8.95
2023-01-31T14:26:44.329Z,8.40
2023-01-31T14:29:18.687Z,8.43
2023-01-31T14:31:48.428Z,8.05
2023-01-31T14:34:34.421Z,6.90
2023-01-31T14:37:23.267Z,7.72
2023-01-31T14:40:21.020Z,8.45
2023-01-31T14:43:08.092Z,8.20
2023-01-31T14:45:43.579Z,8.45
2023-01-31T14:48:26.200Z,10.30
2023-01-31T14:51:45.703Z,11.65
2023-01-31T14:54:18.073Z,7.55
2023-01-31T14:56:57.818Z,8.32
2023-01-31T14:59:27.095Z,8.27
2023-01-31T15:01:55.448Z,7.57
2023-01-31T15:04:25.707Z,8.15
2023-01-31T15:06:54.999Z,7.78
2023-01-31T15:09:21.871Z,8.40
2023-01-31T15:11:56.885Z,7.57
2023-01-31T15:14:49.033Z,7.65
2023-01-31T15:17:33.746Z,6.72
2023-01-31T15:20:19.183Z,7.22
2023-01-31T15:22:46.846Z,6.88
2023-01-31T15:25:36.884Z,9.85
2023-01-31T15:28:06.047Z,7.22
2023-01-31T15:30:35.349Z,7.65
2023-01-31T15:33:28.226Z,6.95
2023-01-31T15:36:21.230Z,8.43
2023-01-31T15:38:57.094Z,6.93
2023-01-31T15:41:44.420Z,7.32
2023-01-31T15:44:23.324Z,6.70
2023-01-31T15:46:52.288Z,6.85
2023-01-31T15:49:39.581Z,6.65
2023-01-31T15:52:19.742Z,5.90
2023-01-31T15:54:56.124Z,5.20
2023-01-31T15:57:27.763Z,5.75
2023-01-31T15:59:56.244Z,4.25
2023-01-31T16:02:29.407Z,4.82
2023-01-31T16:04:57.761Z,4.55
2023-01-31T16:07:29.330Z,4.00
2023-01-31T16:09:58.011Z,3.63
2023-01-31T16:12:26.217Z,4.00
2023-01-31T16:14:59.245Z,3.78
2023-01-31T16:17:27.988Z,3.35
2023-01-31T16:19:55.043Z,3.00
2023-01-31T16:22:27.403Z,3.42
2023-01-31T16:24:59.078Z,4.57
2023-01-31T16:27:28.587Z,4.32
2023-01-31T16:29:58.929Z,4.43
2023-01-31T16:32:27.968Z,5.00
2023-01-31T16:35:02.491Z,4.45
2023-01-31T16:37:36.804Z,5.60
2023-01-31T16:40:27.952Z,5.53
2023-01-31T16:43:13.434Z,5.47
2023-01-31T16:45:58.047Z,5.55
2023-01-31T16:48:38.656Z,5.85
2023-01-31T16:51:28.218Z,6.10
2023-01-31T16:54:22.912Z,5.38
2023-01-31T16:57:01.888Z,5.73
2023-01-31T16:59:34.798Z,6.65
2023-01-31T17:02:08.645Z,6.25
2023-01-31T17:04:39.884Z,5.93
2023-01-31T17:07:14.499Z,5.50
2023-01-31T17:09:41.370Z,5.75
2023-01-31T17:12:21.785Z,6.10
2023-01-31T17:14:49.112Z,5.97
2023-01-31T17:17:21.599Z,5.63
2023-01-31T17:19:49.320Z,5.03
2023-01-31T17:22:16.237Z,5.15
2023-01-31T17:24:43.272Z,4.97
2023-01-31T17:27:14.627Z,5.07
2023-01-31T17:29:42.113Z,5.72
2023-01-31T17:32:12.323Z,6.28
2023-01-31T17:34:39.905Z,4.93
2023-01-31T17:37:07.114Z,4.60
2023-01-31T17:39:37.101Z,5.43
2023-01-31T17:42:04.859Z,5.60
2023-01-31T17:44:32.098Z,5.15
2023-01-31T17:46:59.024Z,5.45
2023-01-31T17:49:25.924Z,5.50
2023-01-31T17:51:52.830Z,5.00
2023-01-31T17:54:19.996Z,6.35
2023-01-31T17:56:46.918Z,5.50
2023-01-31T17:59:25.388Z,6.07
2023-01-31T18:01:53.817Z,6.80
2023-01-31T18:04:20.966Z,5.05
2023-01-31T18:06:47.958Z,4.78
2023-01-31T18:09:17.096Z,5.38
2023-01-31T18:11:44.556Z,5.15
2023-01-31T18:14:12.580Z,4.90
2023-01-31T18:16:39.641Z,5.10
2023-01-31T18:19:06.625Z,6.28
2023-01-31T18:21:34.399Z,5.15
2023-01-31T18:24:02.415Z,4.88
2023-01-31T18:26:29.334Z,5.22
2023-01-31T18:28:57.618Z,5.50
2023-01-31T18:31:24.739Z,4.95
2023-01-31T18:33:51.623Z,5.13
2023-01-31T18:36:20.333Z,5.68
2023-01-31T18:38:48.702Z,6.20
2023-01-31T18:41:18.964Z,6.90
2023-01-31T18:43:47.957Z,7.10
2023-01-31T18:46:15.138Z,8.85
2023-01-31T18:48:41.991Z,8.55
2023-01-31T18:51:11.923Z,8.18
2023-01-31T18:53:41.119Z,8.63
2023-01-31T18:56:12.990Z,8.90
2023-01-31T18:58:41.376Z,10.60
2023-01-31T19:01:11.490Z,9.95
2023-01-31T19:03:39.159Z,10.23
2023-01-31T19:06:16.365Z,12.60
2023-01-31T19:08:43.506Z,10.68
2023-01-31T19:11:13.426Z,11.10
2023-01-31T19:13:41.849Z,11.48
2023-01-31T19:16:14.781Z,11.52
2023-01-31T19:18:42.014Z,15.25
2023-01-31T19:21:26.658Z,13.75
2023-01-31T19:23:59.558Z,13.57
2023-01-31T19:26:27.703Z,12.60
2023-01-31T19:28:55.761Z,13.38
2023-01-31T19:31:24.658Z,14.73
2023-01-31T19:33:52.747Z,12.75
2023-01-31T19:36:21.760Z,13.00
2023-01-31T19:38:48.870Z,13.15
2023-01-31T19:41:19.199Z,15.25
2023-01-31T19:43:48.688Z,13.48
2023-01-31T19:46:15.772Z,12.52
2023-01-31T19:48:42.943Z,12.32
2023-01-31T19:51:12.259Z,12.07
2023-01-31T19:53:40.148Z,12.30
2023-01-31T19:56:07.441Z,11.70
2023-01-31T19:58:34.585Z,12.43
2023-01-31T20:01:03.026Z,13.40
2023-01-31T20:03:30.460Z,13.40
2023-01-31T20:06:11.690Z,14.23
2023-01-31T20:08:38.928Z,13.82
2023-01-31T20:11:07.728Z,14.60
2023-01-31T20:13:35.348Z,13.00
2023-01-31T20:16:12.734Z,13.20
2023-01-31T20:18:41.365Z,14.57
2023-01-31T20:21:12.067Z,14.73
2023-01-31T20:23:38.970Z,13.45
2023-01-31T20:26:05.812Z,14.13
2023-01-31T20:28:34.541Z,15.82
2023-01-31T20:31:10.301Z,15.75
2023-01-31T20:33:37.640Z,13.25
2023-01-31T20:36:05.275Z,13.60
2023-01-31T20:38:32.631Z,13.60
2023-01-31T20:40:59.518Z,13.32
2023-01-31T20:43:27.284Z,14.02
2023-01-31T20:46:01.175Z,13.63
2023-01-31T20:48:30.614Z,13.30
2023-01-31T20:50:58.189Z,13.23
2023-01-31T20:53:26.004Z,12.27
2023-01-31T20:56:05.549Z,12.48
2023-01-31T20:58:35.646Z,13.48
2023-01-31T21:01:05.850Z,11.80
2023-01-31T21:03:33.863Z,12.15
2023-01-31T21:06:01.888Z,11.77
2023-01-31T21:08:29.958Z,12.07
2023-01-31T21:10:58.417Z,11.73
2023-01-31T21:13:28.771Z,10.90
2023-01-31T21:15:58.146Z,12.15
2023-01-31T21:18:27.598Z,11.45
2023-01-31T21:20:54.638Z,11.20
2023-01-31T21:23:21.436Z,12.52
2023-01-31T21:25:48.304Z,9.60
2023-01-31T21:28:15.215Z,9.65
2023-01-31T21:30:42.331Z,9.13
2023-01-31T21:33:09.213Z,9.00
2023-01-31T21:35:36.045Z,9.20
2023-01-31T21:38:02.890Z,8.23
2023-01-31T21:40:29.735Z,6.90
2023-01-31T21:42:56.566Z,7.68
2023-01-31T21:45:41.422Z,6.32
2023-01-31T21:48:30.295Z,6.17
2023-01-31T21:50:57.692Z,5.15
2023-01-31T21:53:26.281Z,5.10
2023-01-31T21:56:05.510Z,6.00
2023-01-31T21:58:33.357Z,4.80
2023-01-31T22:01:14.944Z,5.00
2023-01-31T22:03:44.866Z,5.18
2023-01-31T22:06:14.348Z,5.10
2023-01-31T22:08:41.681Z,4.72
2023-01-31T22:11:10.796Z,4.20
2023-01-31T22:13:38.549Z,5.53
2023-01-31T22:16:08.759Z,4.55
2023-01-31T22:18:36.831Z,4.57
2023-01-31T22:21:09.234Z,3.95
2023-01-31T22:23:37.986Z,4.90
2023-01-31T22:26:06.373Z,5.07
2023-01-31T22:28:33.755Z,4.82
2023-01-31T22:31:02.315Z,5.57
2023-01-31T22:33:30.936Z,4.70
2023-01-31T22:35:57.818Z,5.97
2023-01-31T22:38:25.168Z,7.18
2023-01-31T22:40:52.585Z,7.15
2023-01-31T22:43:23.119Z,5.75
2023-01-31T22:45:52.523Z,6.43
2023-01-31T22:48:20.455Z,6.05
2023-01-31T22:50:57.938Z,6.97
2023-01-31T22:53:26.007Z,7.43
2023-01-31T22:55:53.122Z,8.20
2023-01-31T22:58:20.536Z,7.90
2023-01-31T23:00:47.802Z,6.82
2023-01-31T23:03:14.652Z,8.18
2023-01-31T23:05:45.213Z,7.15
2023-01-31T23:08:13.490Z,8.35
2023-01-31T23:10:41.308Z,7.45
2023-01-31T23:13:08.906Z,9.13
2023-01-31T23:15:36.778Z,8.13
2023-01-31T23:18:04.383Z,8.20
2023-01-31T23:20:33.125Z,9.38
2023-01-31T23:23:00.332Z,8.35
2023-01-31T23:25:30.027Z,8.15
2023-01-31T23:27:57.763Z,8.60
2023-01-31T23:30:25.136Z,9.13
2023-01-31T23:32:52.676Z,8.63
2023-01-31T23:35:19.833Z,9.18
2023-01-31T23:37:46.952Z,8.80
2023-01-31T23:40:14.022Z,8.52
2023-01-31T23:42:40.894Z,7.93
2023-01-31T23:45:08.407Z,9.43
2023-01-31T23:47:35.430Z,8.45
2023-01-31T23:50:02.329Z,8.43
2023-01-31T23:52:29.199Z,8.25
2023-01-31T23:54:56.046Z,8.02
2023-01-31T23:57:22.950Z,8.98
2023-01-31T23:59:49.810Z,7.80
